createdAt,value
2019-03-04T00:01:58.176Z,92.50
2019-03-04T00:04:30.960Z,92.50
2019-03-04T00:07:02.038Z,92.50
2019-03-04T00:09:29.825Z,92.40
2019-03-04T00:12:00.436Z,92.40
2019-03-04T00:14:35.763Z,92.30
2019-03-04T00:17:03.796Z,92.40
2019-03-04T00:19:31.663Z,92.50
2019-03-04T00:21:59.598Z,92.60
2019-03-04T00:24:27.245Z,93.30
2019-03-04T00:26:55.075Z,93.40
2019-03-04T00:29:22.938Z,93.40
2019-03-04T00:31:50.479Z,93.40
2019-03-04T00:34:18.980Z,93.80
2019-03-04T00:36:47.162Z,93.70
2019-03-04T00:39:15.047Z,93.60
2019-03-04T00:41:42.937Z,93.60
2019-03-04T00:44:10.887Z,93.70
2019-03-04T00:46:41.382Z,93.50
2019-03-04T00:49:09.503Z,93.40
2019-03-04T00:51:37.524Z,93.50
2019-03-04T00:54:05.840Z,93.60
2019-03-04T00:56:33.771Z,93.60
2019-03-04T00:59:01.536Z,93.60
2019-03-04T01:01:29.110Z,93.70
2019-03-04T01:03:57.074Z,93.70
2019-03-04T01:06:25.444Z,93.60
2019-03-04T01:08:53.285Z,93.60
2019-03-04T01:11:22.216Z,93.70
2019-03-04T01:13:50.483Z,93.90
2019-03-04T01:16:19.469Z,94.10
2019-03-04T01:18:47.940Z,94.20
2019-03-04T01:21:17.090Z,94.30
2019-03-04T01:23:45.270Z,93.80
2019-03-04T01:26:13.190Z,93.90
2019-03-04T01:28:40.828Z,93.60
2019-03-04T01:31:08.862Z,93.50
2019-03-04T01:33:37.481Z,93.30
2019-03-04T01:36:05.717Z,93.50
2019-03-04T01:38:33.675Z,93.60
2019-03-04T01:41:01.712Z,93.60
2019-03-04T01:43:29.507Z,93.60
2019-03-04T01:45:57.685Z,93.70
2019-03-04T01:48:25.709Z,93.50
2019-03-04T01:50:53.589Z,93.80
2019-03-04T01:53:21.164Z,93.80
2019-03-04T01:55:48.709Z,94.10
2019-03-04T01:58:16.874Z,94.20
2019-03-04T02:00:46.478Z,94.00
2019-03-04T02:03:16.031Z,94.00
2019-03-04T02:05:44.634Z,94.00
2019-03-04T02:08:14.153Z,94.10
2019-03-04T02:10:41.767Z,94.00
2019-03-04T02:13:09.649Z,93.60
2019-03-04T02:15:42.204Z,93.60
2019-03-04T02:18:10.041Z,93.60
2019-03-04T02:20:38.906Z,93.90
2019-03-04T02:23:06.657Z,94.30
2019-03-04T02:26:15.846Z,94.70
2019-03-04T02:28:43.509Z,94.60
2019-03-04T02:31:32.080Z,94.50
2019-03-04T02:34:00.490Z,94.70
2019-03-04T02:36:28.192Z,94.90
2019-03-04T02:38:55.866Z,94.90
2019-03-04T02:41:23.737Z,95.10
2019-03-04T02:43:52.218Z,95.20
2019-03-04T02:46:20.583Z,95.00
2019-03-04T02:48:48.605Z,95.00
2019-03-04T02:51:16.493Z,95.00
2019-03-04T02:53:43.970Z,95.10
2019-03-04T02:56:12.743Z,95.00
2019-03-04T02:58:40.722Z,94.80
2019-03-04T03:01:08.462Z,94.90
2019-03-04T03:03:45.672Z,94.70
2019-03-04T03:06:13.637Z,94.70
2019-03-04T03:08:41.229Z,94.70
2019-03-04T03:11:10.120Z,94.70
2019-03-04T03:13:38.350Z,94.70
2019-03-04T03:16:08.049Z,94.80
2019-03-04T03:18:36.170Z,94.90
2019-03-04T03:21:03.871Z,94.70
2019-03-04T03:23:31.937Z,94.60
2019-03-04T03:26:04.183Z,94.90
2019-03-04T03:28:32.011Z,95.10
2019-03-04T03:30:59.627Z,95.10
2019-03-04T03:33:27.454Z,95.30
2019-03-04T03:35:55.324Z,95.50
2019-03-04T03:38:24.170Z,95.40
2019-03-04T03:40:52.050Z,95.20
2019-03-04T03:43:19.742Z,95.00
2019-03-04T03:45:47.858Z,94.90
2019-03-04T03:48:15.675Z,95.00
2019-03-04T03:50:43.757Z,94.90
2019-03-04T03:53:11.774Z,94.90
2019-03-04T03:55:40.624Z,95.00
2019-03-04T03:58:08.529Z,95.20
2019-03-04T04:00:36.688Z,95.50
2019-03-04T04:03:05.070Z,95.50
2019-03-04T04:05:35.717Z,95.20
2019-03-04T04:08:04.115Z,95.20
2019-03-04T04:10:32.661Z,95.60
2019-03-04T04:13:00.805Z,95.30
2019-03-04T04:15:29.044Z,95.20
2019-03-04T04:18:00.070Z,95.10
2019-03-04T04:20:27.852Z,94.90
2019-03-04T04:22:55.918Z,95.00
2019-03-04T04:25:24.086Z,95.20
2019-03-04T04:27:52.486Z,94.70
2019-03-04T04:30:24.888Z,94.90
2019-03-04T04:32:53.058Z,95.10
2019-03-04T04:35:21.583Z,95.10
2019-03-04T04:37:49.599Z,95.00
2019-03-04T04:40:17.749Z,95.20
2019-03-04T04:42:45.946Z,95.30
2019-03-04T04:45:14.280Z,95.60
2019-03-04T04:47:42.295Z,95.30
2019-03-04T04:50:12.935Z,95.30
2019-03-04T04:52:40.768Z,95.70
2019-03-04T04:55:08.651Z,96.00
2019-03-04T04:57:36.851Z,95.80
2019-03-04T05:00:08.222Z,95.80
2019-03-04T05:02:36.350Z,95.90
2019-03-04T05:05:05.170Z,95.90
2019-03-04T05:07:33.418Z,95.60
2019-03-04T05:10:11.180Z,95.70
2019-03-04T05:12:39.238Z,95.40
2019-03-04T05:15:15.599Z,95.60
2019-03-04T05:17:50.075Z,95.90
2019-03-04T05:20:19.777Z,95.80
2019-03-04T05:22:48.122Z,95.80
2019-03-04T05:25:21.126Z,95.70
2019-03-04T05:27:49.653Z,95.70
2019-03-04T05:30:27.274Z,95.60
2019-03-04T05:32:55.427Z,95.60
2019-03-04T05:35:23.571Z,95.60
2019-03-04T05:37:51.669Z,95.30
2019-03-04T05:40:20.558Z,95.40
2019-03-04T05:42:49.458Z,95.40
2019-03-04T05:45:18.375Z,95.30
2019-03-04T05:47:47.004Z,95.30
2019-03-04T05:50:15.996Z,95.30
2019-03-04T05:52:44.043Z,95.60
2019-03-04T05:55:13.837Z,95.70
2019-03-04T05:57:41.846Z,95.80
2019-03-04T06:00:18.067Z,95.70
2019-03-04T06:02:46.680Z,95.60
2019-03-04T06:05:15.609Z,95.70
2019-03-04T06:07:50.153Z,95.60
2019-03-04T06:10:18.333Z,95.40
2019-03-04T06:12:46.833Z,95.40
2019-03-04T06:15:16.422Z,95.20
2019-03-04T06:17:44.355Z,95.30
2019-03-04T06:20:13.485Z,95.40
2019-03-04T06:22:41.540Z,95.60
2019-03-04T06:25:12.256Z,95.80
2019-03-04T06:27:39.869Z,95.70
2019-03-04T06:30:12.670Z,95.50
2019-03-04T06:32:40.263Z,95.50
2019-03-04T06:35:08.877Z,95.50
2019-03-04T06:37:36.376Z,95.70
2019-03-04T06:40:05.104Z,95.70
2019-03-04T06:42:33.077Z,95.70
2019-03-04T06:45:01.047Z,95.60
2019-03-04T06:47:28.900Z,95.50
2019-03-04T06:49:56.622Z,95.50
2019-03-04T06:52:25.409Z,95.30
2019-03-04T06:55:35.911Z,95.20
2019-03-04T06:58:03.385Z,95.40
2019-03-04T07:00:48.417Z,95.40
2019-03-04T07:03:25.398Z,97.60
2019-03-04T07:05:53.301Z,96.60
2019-03-04T07:09:09.586Z,95.60
2019-03-04T07:11:51.142Z,95.40
2019-03-04T07:14:18.696Z,95.40
2019-03-04T07:16:47.620Z,95.40
2019-03-04T07:19:28.637Z,95.40
2019-03-04T07:21:56.238Z,95.30
2019-03-04T07:24:23.847Z,95.30
2019-03-04T07:26:52.205Z,95.20
2019-03-04T07:29:19.815Z,94.60
2019-03-04T07:31:47.284Z,94.10
2019-03-04T07:34:14.977Z,93.90
2019-03-04T07:36:42.760Z,93.40
2019-03-04T07:39:16.086Z,93.20
2019-03-04T07:41:50.701Z,93.00
2019-03-04T07:44:22.719Z,93.10
2019-03-04T07:46:50.666Z,93.20
2019-03-04T07:49:18.310Z,92.90
2019-03-04T07:51:45.919Z,92.60
2019-03-04T07:54:13.720Z,92.90
2019-03-04T07:56:41.339Z,92.90
2019-03-04T07:59:08.967Z,92.80
2019-03-04T08:01:37.717Z,92.60
2019-03-04T08:04:05.787Z,92.70
2019-03-04T08:06:34.554Z,92.30
2019-03-04T08:09:53.503Z,91.80
2019-03-04T08:13:02.307Z,91.80
2019-03-04T08:15:34.207Z,90.70
2019-03-04T08:18:01.808Z,90.30
2019-03-04T08:20:29.634Z,90.20
2019-03-04T08:22:57.565Z,88.50
2019-03-04T08:25:26.445Z,87.50
2019-03-04T08:27:56.709Z,86.10
2019-03-04T08:30:25.282Z,85.00
2019-03-04T08:32:55.349Z,85.20
2019-03-04T08:35:22.951Z,85.70
2019-03-04T08:37:50.546Z,87.90
2019-03-04T08:40:18.414Z,87.90
2019-03-04T08:42:46.604Z,88.40
2019-03-04T08:45:16.232Z,88.50
2019-03-04T08:47:43.926Z,89.10
2019-03-04T08:50:12.487Z,89.40
2019-03-04T08:52:40.117Z,89.90
2019-03-04T08:55:08.853Z,90.00
2019-03-04T08:57:36.539Z,90.00
2019-03-04T09:00:06.609Z,90.10
2019-03-04T09:02:34.195Z,90.30
2019-03-04T09:05:05.540Z,90.70
2019-03-04T09:07:33.137Z,91.10
2019-03-04T09:10:00.638Z,91.60
2019-03-04T09:12:28.192Z,91.60
2019-03-04T09:14:55.967Z,91.50
2019-03-04T09:17:23.925Z,91.40
2019-03-04T09:19:52.090Z,90.90
2019-03-04T09:22:19.995Z,90.90
2019-03-04T09:24:47.731Z,90.50
2019-03-04T09:27:16.526Z,90.10
2019-03-04T09:29:46.064Z,90.00
2019-03-04T09:32:14.343Z,90.90
2019-03-04T09:34:42.396Z,91.30
2019-03-04T09:37:12.317Z,91.60
2019-03-04T09:39:40.190Z,91.40
2019-03-04T09:42:27.378Z,91.60
2019-03-04T09:44:54.923Z,91.60
2019-03-04T09:47:22.550Z,91.80
2019-03-04T09:49:50.253Z,91.80
2019-03-04T09:52:17.963Z,91.70
2019-03-04T09:54:45.457Z,91.90
2019-03-04T09:57:13.619Z,91.90
2019-03-04T09:59:44.025Z,91.20
2019-03-04T10:02:21.774Z,91.10
2019-03-04T10:05:08.777Z,90.80
2019-03-04T10:08:08.403Z,90.40
2019-03-04T10:11:13.525Z,90.20
2019-03-04T10:14:03.371Z,88.70
2019-03-04T10:17:28.321Z,88.10
2019-03-04T10:20:28.182Z,86.70
2019-03-04T10:23:08.253Z,85.80
2019-03-04T10:26:06.373Z,86.00
2019-03-04T10:29:13.842Z,85.00
2019-03-04T10:32:21.727Z,85.10
2019-03-04T10:35:12.912Z,85.40
2019-03-04T10:38:36.895Z,84.70
2019-03-04T10:41:28.513Z,84.50
2019-03-04T10:44:37.955Z,82.90
2019-03-04T10:47:03.236Z,83.10
2019-03-04T10:49:32.106Z,83.70
2019-03-04T10:51:59.786Z,82.80
2019-03-04T10:54:27.611Z,83.10
2019-03-04T10:56:55.206Z,82.80
2019-03-04T10:59:23.094Z,83.00
2019-03-04T11:01:50.665Z,82.90
2019-03-04T11:04:18.313Z,83.40
2019-03-04T11:06:45.936Z,83.10
2019-03-04T11:09:13.849Z,82.90
2019-03-04T11:11:42.537Z,82.70
2019-03-04T11:14:16.244Z,83.10
2019-03-04T11:16:43.951Z,82.90
2019-03-04T11:19:11.599Z,83.70
2019-03-04T11:21:39.541Z,83.10
2019-03-04T11:24:07.856Z,82.70
2019-03-04T11:26:35.687Z,83.10
2019-03-04T11:29:04.654Z,82.80
2019-03-04T11:31:32.178Z,82.60
2019-03-04T11:33:59.725Z,82.70
2019-03-04T11:36:27.221Z,83.10
2019-03-04T11:39:15.430Z,82.70
2019-03-04T11:41:43.071Z,82.20
2019-03-04T11:44:10.825Z,82.40
2019-03-04T11:46:38.530Z,81.90
2019-03-04T11:49:06.098Z,81.70
2019-03-04T11:51:33.681Z,81.40
2019-03-04T11:54:01.308Z,81.40
2019-03-04T11:56:29.833Z,80.90
2019-03-04T11:58:57.450Z,79.90
2019-03-04T12:01:38.570Z,79.60
2019-03-04T12:04:06.397Z,79.80
2019-03-04T12:06:34.266Z,79.60
2019-03-04T12:09:02.201Z,79.50
2019-03-04T12:11:38.045Z,79.60
2019-03-04T12:13:59.161Z,80.10
2019-03-04T12:16:26.754Z,80.50
2019-03-04T12:18:54.246Z,80.40
2019-03-04T12:21:21.780Z,80.50
2019-03-04T12:23:51.282Z,80.50
2019-03-04T12:26:18.857Z,80.70
2019-03-04T12:28:46.391Z,80.50
2019-03-04T12:31:15.348Z,80.30
2019-03-04T12:33:43.128Z,79.90
2019-03-04T12:36:10.666Z,79.60
2019-03-04T12:38:38.257Z,80.20
2019-03-04T12:41:05.768Z,79.40
2019-03-04T12:43:33.263Z,78.60
2019-03-04T12:46:00.799Z,77.70
2019-03-04T12:48:28.541Z,77.10
2019-03-04T12:51:00.525Z,77.30
2019-03-04T12:53:37.085Z,77.20
2019-03-04T12:55:57.850Z,77.00
2019-03-04T12:58:25.402Z,76.50
2019-03-04T13:00:53.239Z,75.90
2019-03-04T13:03:26.131Z,75.90
2019-03-04T13:05:53.724Z,75.60
2019-03-04T13:08:23.183Z,74.40
2019-03-04T13:10:50.690Z,73.20
2019-03-04T13:13:26.183Z,73.30
2019-03-04T13:15:55.237Z,72.40
2019-03-04T13:18:22.736Z,72.30
2019-03-04T13:20:50.382Z,72.00
2019-03-04T13:23:18.348Z,71.40
2019-03-04T13:25:45.945Z,71.80
2019-03-04T13:28:13.644Z,71.70
2019-03-04T13:30:41.293Z,71.70
2019-03-04T13:33:09.191Z,71.00
2019-03-04T13:35:36.729Z,71.00
2019-03-04T13:38:04.349Z,70.90
2019-03-04T13:40:31.843Z,69.70
2019-03-04T13:42:59.360Z,69.20
2019-03-04T13:45:27.219Z,69.10
2019-03-04T13:47:54.778Z,69.40
2019-03-04T13:50:23.060Z,69.30
2019-03-04T13:52:50.689Z,68.80
2019-03-04T13:55:19.905Z,68.80
2019-03-04T13:57:47.688Z,69.20
2019-03-04T14:00:16.748Z,67.50
2019-03-04T14:02:44.800Z,67.40
2019-03-04T14:05:13.189Z,67.40
2019-03-04T14:07:40.968Z,68.00
2019-03-04T14:10:10.990Z,66.40
2019-03-04T14:12:41.921Z,66.70
2019-03-04T14:15:31.870Z,66.90
2019-03-04T14:18:00.961Z,65.80
2019-03-04T14:20:28.901Z,65.20
2019-03-04T14:22:58.042Z,65.00
2019-03-04T14:25:28.495Z,65.20
2019-03-04T14:28:07.167Z,64.90
2019-03-04T14:30:34.896Z,65.40
2019-03-04T14:33:04.133Z,65.40
2019-03-04T14:35:32.789Z,65.40
2019-03-04T14:38:00.536Z,65.30
2019-03-04T14:40:28.850Z,63.90
2019-03-04T14:43:05.120Z,64.00
2019-03-04T14:45:34.521Z,64.80
2019-03-04T14:48:02.140Z,63.50
2019-03-04T14:50:29.872Z,62.80
2019-03-04T14:52:57.355Z,63.10
2019-03-04T14:55:24.848Z,63.20
2019-03-04T14:57:58.347Z,62.40
2019-03-04T15:00:47.897Z,62.60
2019-03-04T15:03:23.056Z,60.60
2019-03-04T15:05:45.704Z,60.40
2019-03-04T15:08:14.296Z,60.60
2019-03-04T15:10:41.850Z,60.20
2019-03-04T15:13:10.128Z,61.10
2019-03-04T15:15:37.663Z,61.50
2019-03-04T15:18:05.571Z,62.50
2019-03-04T15:20:35.786Z,63.20
2019-03-04T15:23:03.405Z,64.20
2019-03-04T15:25:31.314Z,65.30
2019-03-04T15:28:13.220Z,65.40
2019-03-04T15:30:42.022Z,65.30
2019-03-04T15:33:17.480Z,65.50
2019-03-04T15:35:40.320Z,66.10
2019-03-04T15:38:08.029Z,67.00
2019-03-04T15:40:37.593Z,67.10
2019-03-04T15:43:05.148Z,67.30
2019-03-04T15:45:33.689Z,67.70
2019-03-04T15:48:01.578Z,68.00
2019-03-04T15:50:29.092Z,68.70
2019-03-04T15:52:56.649Z,69.00
2019-03-04T15:55:24.288Z,69.00
2019-03-04T15:57:51.870Z,70.40
2019-03-04T16:00:19.361Z,69.50
2019-03-04T16:02:49.256Z,69.60
2019-03-04T16:05:16.877Z,69.60
2019-03-04T16:07:44.692Z,69.70
2019-03-04T16:10:14.361Z,69.30
2019-03-04T16:12:42.520Z,69.50
2019-03-04T16:15:13.155Z,75.80
2019-03-04T16:17:43.737Z,81.10
2019-03-04T16:20:15.964Z,88.30
2019-03-04T16:22:42.488Z,91.90
2019-03-04T16:25:10.337Z,94.50
2019-03-04T16:27:37.912Z,95.20
2019-03-04T16:30:08.300Z,96.10
2019-03-04T16:32:38.946Z,96.20
2019-03-04T16:35:06.830Z,97.40
2019-03-04T16:37:34.377Z,97.60
2019-03-04T16:40:02.036Z,97.60
2019-03-04T16:42:29.623Z,97.30
2019-03-04T16:44:57.276Z,97.70
2019-03-04T16:47:28.528Z,97.40
2019-03-04T16:49:56.106Z,98.50
2019-03-04T16:52:26.854Z,97.70
2019-03-04T16:54:54.457Z,97.20
2019-03-04T16:57:34.439Z,97.10
2019-03-04T17:00:02.384Z,97.60
2019-03-04T17:02:29.538Z,97.50
2019-03-04T17:04:57.492Z,97.20
2019-03-04T17:07:26.165Z,97.40
2019-03-04T17:09:54.009Z,97.10
2019-03-04T17:12:30.110Z,97.30
2019-03-04T17:14:58.252Z,97.60
2019-03-04T17:17:27.858Z,97.60
2019-03-04T17:19:58.893Z,97.50
2019-03-04T17:22:27.528Z,97.60
2019-03-04T17:24:55.149Z,97.60
2019-03-04T17:27:22.681Z,98.20
2019-03-04T17:29:50.453Z,97.80
2019-03-04T17:32:18.157Z,97.70
2019-03-04T17:34:45.813Z,98.20
2019-03-04T17:37:13.333Z,98.20
2019-03-04T17:39:41.009Z,98.30
2019-03-04T17:42:08.889Z,97.80
2019-03-04T17:44:36.460Z,98.10
2019-03-04T17:47:04.236Z,98.10
2019-03-04T17:49:31.852Z,98.00
2019-03-04T17:51:59.428Z,98.50
2019-03-04T17:54:27.429Z,98.40
2019-03-04T17:56:55.363Z,97.80
2019-03-04T17:59:31.447Z,97.90
2019-03-04T18:02:01.938Z,98.20
2019-03-04T18:04:30.184Z,98.00
2019-03-04T18:07:05.793Z,97.70
2019-03-04T18:10:16.972Z,97.70
2019-03-04T18:12:44.809Z,97.70
2019-03-04T18:15:17.074Z,97.40
2019-03-04T18:17:46.045Z,97.50
2019-03-04T18:20:14.357Z,97.60
2019-03-04T18:22:50.097Z,97.40
2019-03-04T18:25:27.760Z,97.50
2019-03-04T18:28:06.949Z,97.40
2019-03-04T18:31:16.396Z,97.20
2019-03-04T18:34:38.218Z,97.20
2019-03-04T18:38:51.264Z,97.20
2019-03-04T18:45:56.878Z,97.40
2019-03-04T18:56:21.501Z,97.50
2019-03-04T18:59:17.306Z,97.70
2019-03-04T19:01:45.002Z,97.50
2019-03-04T19:04:18.682Z,97.80
2019-03-04T19:06:46.370Z,97.90
2019-03-04T19:09:15.321Z,97.80
2019-03-04T19:11:42.997Z,97.80
2019-03-04T19:14:10.484Z,98.00
2019-03-04T19:16:38.082Z,97.90
2019-03-04T19:19:06.193Z,97.80
2019-03-04T19:21:34.537Z,97.80
2019-03-04T19:24:02.359Z,97.60
2019-03-04T19:26:30.319Z,97.90
2019-03-04T19:28:58.095Z,97.80
2019-03-04T19:31:33.897Z,97.70
2019-03-04T19:34:01.797Z,97.70
2019-03-04T19:36:29.611Z,97.50
2019-03-04T19:38:59.354Z,97.50
2019-03-04T19:41:27.325Z,97.80
2019-03-04T19:43:56.323Z,97.40
2019-03-04T19:46:23.827Z,97.30
2019-03-04T19:48:51.986Z,97.50
2019-03-04T19:51:19.770Z,97.60
2019-03-04T19:53:47.558Z,97.30
2019-03-04T19:56:15.470Z,97.60
2019-03-04T19:58:43.533Z,98.20
2019-03-04T20:01:11.487Z,98.50
2019-03-04T20:03:39.467Z,98.80
2019-03-04T20:06:07.486Z,99.00
2019-03-04T20:08:35.402Z,99.00
2019-03-04T20:11:05.736Z,99.00
2019-03-04T20:13:33.681Z,98.50
2019-03-04T20:16:01.319Z,98.60
2019-03-04T20:18:40.944Z,98.60
2019-03-04T20:21:08.658Z,98.40
2019-03-04T20:23:47.108Z,98.60
2019-03-04T20:26:14.789Z,98.80
2019-03-04T20:28:42.338Z,99.20
2019-03-04T20:31:10.748Z,99.50
2019-03-04T20:33:45.151Z,99.20
2019-03-04T20:36:22.113Z,99.30
2019-03-04T20:38:49.818Z,99.80
2019-03-04T20:41:17.885Z,99.50
2019-03-04T20:43:47.510Z,99.30
2019-03-04T20:46:15.331Z,99.30
2019-03-04T20:48:43.046Z,99.40
2019-03-04T20:51:10.622Z,99.20
2019-03-04T20:53:38.314Z,99.40
2019-03-04T20:56:09.035Z,99.40
2019-03-04T20:58:36.665Z,99.20
2019-03-04T21:01:07.869Z,99.20
2019-03-04T21:03:38.858Z,99.00
2019-03-04T21:06:07.849Z,98.90
2019-03-04T21:08:35.679Z,99.00
2019-03-04T21:11:03.645Z,99.10
2019-03-04T21:13:35.764Z,99.10
2019-03-04T21:16:21.080Z,99.00
2019-03-04T21:18:48.906Z,98.90
2019-03-04T21:21:16.730Z,98.60
2019-03-04T21:23:48.414Z,98.40
2019-03-04T21:26:24.328Z,98.60
2019-03-04T21:29:30.210Z,98.70
2019-03-04T21:32:33.549Z,98.50
2019-03-04T21:35:45.026Z,98.30
2019-03-04T21:38:16.313Z,98.30
2019-03-04T21:40:55.504Z,98.20
2019-03-04T21:43:34.502Z,98.20
2019-03-04T21:46:47.936Z,98.00
2019-03-04T21:49:17.527Z,98.10
2019-03-04T21:52:29.498Z,98.10
2019-03-04T21:54:58.019Z,97.80
2019-03-04T21:57:35.465Z,97.70
2019-03-04T22:00:08.373Z,97.90
2019-03-04T22:03:12.758Z,97.80
2019-03-04T22:05:49.774Z,97.80
2019-03-04T22:08:13.558Z,97.90
2019-03-04T22:10:59.044Z,97.90
2019-03-04T22:13:30.408Z,97.90
2019-03-04T22:16:09.474Z,97.90
2019-03-04T22:18:37.457Z,97.70
2019-03-04T22:21:16.278Z,97.20
2019-03-04T22:23:37.914Z,97.20
2019-03-04T22:26:05.878Z,97.40
2019-03-04T22:28:36.762Z,97.60
2019-03-04T22:31:04.411Z,97.40
2019-03-04T22:33:32.276Z,97.20
2019-03-04T22:36:00.590Z,96.90
2019-03-04T22:38:28.713Z,97.00
2019-03-04T22:40:56.905Z,97.10
2019-03-04T22:43:33.978Z,97.20
2019-03-04T22:46:02.411Z,96.70
2019-03-04T22:48:31.194Z,96.60
2019-03-04T22:51:00.637Z,96.80
2019-03-04T22:53:28.403Z,96.70
2019-03-04T22:55:56.767Z,96.80
2019-03-04T22:58:28.545Z,96.40
2019-03-04T23:01:35.631Z,96.40
2019-03-04T23:04:11.573Z,96.10
2019-03-04T23:06:41.130Z,95.80
2019-03-04T23:09:11.403Z,95.90
2019-03-04T23:11:43.002Z,95.80
2019-03-04T23:14:18.086Z,95.70
2019-03-04T23:16:46.246Z,95.60
2019-03-04T23:19:14.417Z,95.60
2019-03-04T23:21:42.352Z,95.70
2019-03-04T23:24:20.281Z,95.60
2019-03-04T23:26:48.564Z,95.30
2019-03-04T23:29:16.821Z,95.40
2019-03-04T23:31:44.947Z,95.40
2019-03-04T23:34:15.731Z,95.40
2019-03-04T23:36:43.976Z,95.50
2019-03-04T23:39:12.060Z,95.40
2019-03-04T23:41:47.851Z,95.40
2019-03-04T23:44:15.843Z,95.50
2019-03-04T23:46:43.882Z,95.90
2019-03-04T23:49:11.999Z,95.80
2019-03-04T23:51:39.692Z,95.90
2019-03-04T23:54:09.796Z,95.80
2019-03-04T23:56:37.927Z,96.00
2019-03-04T23:59:06.066Z,95.80
